sensor_id;sensor_type;location;lat;lon;timestamp;pressure;altitude;pressure_sealevel;temperature;humidity
62201;BME280;48197;42.732;27.192;2023-04-30T00:01:59;99495.69;;;4.80;100.00
62201;BME280;48197;42.732;27.192;2023-04-30T00:04:26;99495.13;;;4.67;100.00
62201;BME280;48197;42.732;27.192;2023-04-30T00:06:53;99488.53;;;4.72;100.00
62201;BME280;48197;42.732;27.192;2023-04-30T00:09:20;99485.81;;;4.76;100.00
62201;BME280;48197;42.732;27.192;2023-04-30T00:11:47;99494.78;;;4.73;100.00
62201;BME280;48197;42.732;27.192;2023-04-30T00:14:14;99487.53;;;4.57;100.00
62201;BME280;48197;42.732;27.192;2023-04-30T00:16:41;99487.66;;;4.38;100.00
62201;BME280;48197;42.732;27.192;2023-04-30T00:19:08;99494.28;;;4.37;100.00
62201;BME280;48197;42.732;27.192;2023-04-30T00:21:35;99492.06;;;4.46;100.00
62201;BME280;48197;42.732;27.192;2023-04-30T00:24:01;99487.47;;;4.54;100.00
62201;BME280;48197;42.732;27.192;2023-04-30T00:26:29;99483.19;;;4.53;100.00
62201;BME280;48197;42.732;27.192;2023-04-30T00:28:56;99487.84;;;4.52;100.00
62201;BME280;48197;42.732;27.192;2023-04-30T00:31:23;99487.84;;;4.52;100.00
62201;BME280;48197;42.732;27.192;2023-04-30T00:33:50;99486.63;;;4.49;100.00
62201;BME280;48197;42.732;27.192;2023-04-30T00:36:17;99487.19;;;4.59;100.00
62201;BME280;48197;42.732;27.192;2023-04-30T00:38:44;99491.97;;;4.65;100.00
62201;BME280;48197;42.732;27.192;2023-04-30T00:41:11;99495.53;;;4.69;100.00
62201;BME280;48197;42.732;27.192;2023-04-30T00:43:38;99492.09;;;4.76;100.00
62201;BME280;48197;42.732;27.192;2023-04-30T00:46:05;99487.56;;;4.87;100.00
62201;BME280;48197;42.732;27.192;2023-04-30T00:48:32;99495.13;;;4.98;100.00
62201;BME280;48197;42.732;27.192;2023-04-30T00:50:59;99483.41;;;5.01;100.00
62201;BME280;48197;42.732;27.192;2023-04-30T00:53:26;99486.84;;;4.94;100.00
62201;BME280;48197;42.732;27.192;2023-04-30T00:55:53;99486.06;;;4.94;100.00
62201;BME280;48197;42.732;27.192;2023-04-30T00:58:21;99485.56;;;4.84;100.00
62201;BME280;48197;42.732;27.192;2023-04-30T01:00:48;99480.88;;;4.85;100.00
62201;BME280;48197;42.732;27.192;2023-04-30T01:03:15;99489.44;;;4.83;100.00
62201;BME280;48197;42.732;27.192;2023-04-30T01:05:42;99477.28;;;4.81;100.00
62201;BME280;48197;42.732;27.192;2023-04-30T01:08:09;99482.13;;;4.91;100.00
62201;BME280;48197;42.732;27.192;2023-04-30T01:10:45;99473.75;;;5.10;100.00
62201;BME280;48197;42.732;27.192;2023-04-30T01:13:33;99475.56;;;5.33;100.00
62201;BME280;48197;42.732;27.192;2023-04-30T01:18:38;99473.97;;;5.69;100.00
62201;BME280;48197;42.732;27.192;2023-04-30T01:21:07;99468.53;;;5.73;100.00
62201;BME280;48197;42.732;27.192;2023-04-30T01:23:40;99467.13;;;5.52;100.00
62201;BME280;48197;42.732;27.192;2023-04-30T01:26:10;99470.00;;;5.26;100.00
62201;BME280;48197;42.732;27.192;2023-04-30T01:28:38;99471.13;;;5.21;100.00
62201;BME280;48197;42.732;27.192;2023-04-30T01:31:12;99462.63;;;5.30;100.00
62201;BME280;48197;42.732;27.192;2023-04-30T01:33:39;99463.03;;;5.32;100.00
62201;BME280;48197;42.732;27.192;2023-04-30T01:38:49;99463.00;;;4.64;100.00
62201;BME280;48197;42.732;27.192;2023-04-30T01:46:25;99464.25;;;3.91;100.00
62201;BME280;48197;42.732;27.192;2023-04-30T01:49:07;99450.88;;;3.85;100.00
62201;BME280;48197;42.732;27.192;2023-04-30T01:51:44;99453.75;;;3.70;100.00
62201;BME280;48197;42.732;27.192;2023-04-30T01:54:23;99456.81;;;3.45;100.00
62201;BME280;48197;42.732;27.192;2023-04-30T01:57:03;99452.19;;;3.26;100.00
62201;BME280;48197;42.732;27.192;2023-04-30T01:59:38;99454.25;;;3.33;100.00
62201;BME280;48197;42.732;27.192;2023-04-30T02:02:05;99460.75;;;3.67;100.00
62201;BME280;48197;42.732;27.192;2023-04-30T02:04:32;99462.47;;;4.02;100.00
62201;BME280;48197;42.732;27.192;2023-04-30T02:06:59;99456.00;;;4.14;100.00
62201;BME280;48197;42.732;27.192;2023-04-30T02:09:26;99457.00;;;4.28;100.00
62201;BME280;48197;42.732;27.192;2023-04-30T02:11:53;99463.03;;;4.38;100.00
62201;BME280;48197;42.732;27.192;2023-04-30T02:14:20;99459.25;;;4.46;100.00
62201;BME280;48197;42.732;27.192;2023-04-30T02:16:47;99462.00;;;4.49;100.00
62201;BME280;48197;42.732;27.192;2023-04-30T02:19:14;99460.03;;;4.46;100.00
62201;BME280;48197;42.732;27.192;2023-04-30T02:21:41;99460.75;;;4.43;100.00
62201;BME280;48197;42.732;27.192;2023-04-30T02:24:08;99459.88;;;4.36;100.00
62201;BME280;48197;42.732;27.192;2023-04-30T02:26:38;99451.59;;;4.32;100.00
62201;BME280;48197;42.732;27.192;2023-04-30T02:29:05;99448.38;;;4.26;100.00
62201;BME280;48197;42.732;27.192;2023-04-30T02:31:32;99456.59;;;4.26;100.00
62201;BME280;48197;42.732;27.192;2023-04-30T02:33:58;99465.91;;;4.22;100.00
62201;BME280;48197;42.732;27.192;2023-04-30T02:36:25;99468.19;;;4.16;100.00
62201;BME280;48197;42.732;27.192;2023-04-30T02:38:52;99466.94;;;4.14;100.00
62201;BME280;48197;42.732;27.192;2023-04-30T02:41:19;99464.22;;;4.14;100.00
62201;BME280;48197;42.732;27.192;2023-04-30T02:43:46;99462.66;;;4.13;100.00
62201;BME280;48197;42.732;27.192;2023-04-30T02:46:13;99462.59;;;4.09;100.00
62201;BME280;48197;42.732;27.192;2023-04-30T02:48:40;99464.16;;;4.10;100.00
62201;BME280;48197;42.732;27.192;2023-04-30T02:51:07;99466.22;;;4.17;100.00
62201;BME280;48197;42.732;27.192;2023-04-30T02:53:33;99465.75;;;4.11;100.00
62201;BME280;48197;42.732;27.192;2023-04-30T02:56:00;99462.94;;;4.07;100.00
62201;BME280;48197;42.732;27.192;2023-04-30T02:58:26;99463.69;;;4.04;100.00
62201;BME280;48197;42.732;27.192;2023-04-30T03:00:52;99464.16;;;4.10;100.00
62201;BME280;48197;42.732;27.192;2023-04-30T03:03:19;99464.47;;;4.05;100.00
62201;BME280;48197;42.732;27.192;2023-04-30T03:05:46;99456.22;;;4.01;100.00
62201;BME280;48197;42.732;27.192;2023-04-30T03:08:13;99463.19;;;3.99;100.00
62201;BME280;48197;42.732;27.192;2023-04-30T03:10:40;99463.59;;;3.97;100.00
62201;BME280;48197;42.732;27.192;2023-04-30T03:13:06;99450.59;;;3.91;100.00
62201;BME280;48197;42.732;27.192;2023-04-30T03:15:33;99454.88;;;3.92;100.00
62201;BME280;48197;42.732;27.192;2023-04-30T03:18:00;99458.81;;;3.94;100.00
62201;BME280;48197;42.732;27.192;2023-04-30T03:20:26;99464.72;;;3.96;100.00
62201;BME280;48197;42.732;27.192;2023-04-30T03:22:53;99473.66;;;3.93;100.00
62201;BME280;48197;42.732;27.192;2023-04-30T03:25:20;99465.81;;;3.92;100.00
62201;BME280;48197;42.732;27.192;2023-04-30T03:27:47;99466.31;;;3.97;100.00
62201;BME280;48197;42.732;27.192;2023-04-30T03:30:13;99469.50;;;4.03;100.00
62201;BME280;48197;42.732;27.192;2023-04-30T03:32:41;99472.31;;;4.06;100.00
62201;BME280;48197;42.732;27.192;2023-04-30T03:35:08;99472.38;;;4.10;100.00
62201;BME280;48197;42.732;27.192;2023-04-30T03:37:35;99476.75;;;4.15;100.00
62201;BME280;48197;42.732;27.192;2023-04-30T03:40:04;99471.72;;;4.20;100.00
62201;BME280;48197;42.732;27.192;2023-04-30T03:42:32;99478.06;;;4.24;100.00
62201;BME280;48197;42.732;27.192;2023-04-30T03:44:58;99482.06;;;4.30;100.00
62201;BME280;48197;42.732;27.192;2023-04-30T03:47:25;99487.22;;;4.36;100.00
62201;BME280;48197;42.732;27.192;2023-04-30T03:49:52;99481.00;;;4.39;100.00
62201;BME280;48197;42.732;27.192;2023-04-30T03:52:20;99480.75;;;4.47;100.00
62201;BME280;48197;42.732;27.192;2023-04-30T03:54:47;99479.41;;;4.64;100.00
62201;BME280;48197;42.732;27.192;2023-04-30T03:57:14;99482.72;;;4.77;100.00
62201;BME280;48197;42.732;27.192;2023-04-30T03:59:40;99480.53;;;4.90;100.00
62201;BME280;48197;42.732;27.192;2023-04-30T04:02:07;99488.16;;;5.04;100.00
62201;BME280;48197;42.732;27.192;2023-04-30T04:04:34;99482.41;;;5.16;100.00
62201;BME280;48197;42.732;27.192;2023-04-30T04:07:01;99479.06;;;5.30;100.00
62201;BME280;48197;42.732;27.192;2023-04-30T04:09:29;99481.97;;;5.48;100.00
62201;BME280;48197;42.732;27.192;2023-04-30T04:11:55;99484.09;;;5.62;100.00
62201;BME280;48197;42.732;27.192;2023-04-30T04:14:22;99479.09;;;5.71;100.00
62201;BME280;48197;42.732;27.192;2023-04-30T04:16:49;99483.50;;;5.83;100.00
62201;BME280;48197;42.732;27.192;2023-04-30T04:19:14;99485.59;;;5.97;100.00
62201;BME280;48197;42.732;27.192;2023-04-30T04:21:42;99483.78;;;6.11;100.00
62201;BME280;48197;42.732;27.192;2023-04-30T04:24:09;99482.75;;;6.30;100.00
62201;BME280;48197;42.732;27.192;2023-04-30T04:26:35;99486.53;;;6.74;100.00
62201;BME280;48197;42.732;27.192;2023-04-30T04:29:03;99481.22;;;7.06;100.00
62201;BME280;48197;42.732;27.192;2023-04-30T04:31:30;99490.69;;;7.27;100.00
62201;BME280;48197;42.732;27.192;2023-04-30T04:34:01;99473.44;;;7.33;100.00
62201;BME280;48197;42.732;27.192;2023-04-30T04:36:27;99484.88;;;7.43;100.00
62201;BME280;48197;42.732;27.192;2023-04-30T04:38:59;99480.94;;;7.47;100.00
62201;BME280;48197;42.732;27.192;2023-04-30T04:41:29;99483.69;;;7.51;100.00
62201;BME280;48197;42.732;27.192;2023-04-30T04:43:58;99489.22;;;7.58;100.00
62201;BME280;48197;42.732;27.192;2023-04-30T04:46:25;99483.72;;;7.62;100.00
62201;BME280;48197;42.732;27.192;2023-04-30T04:48:53;99485.31;;;7.66;100.00
62201;BME280;48197;42.732;27.192;2023-04-30T04:51:20;99491.22;;;7.79;100.00
62201;BME280;48197;42.732;27.192;2023-04-30T04:53:46;99492.81;;;7.94;100.00
62201;BME280;48197;42.732;27.192;2023-04-30T04:56:13;99495.56;;;8.09;100.00
62201;BME280;48197;42.732;27.192;2023-04-30T04:58:40;99491.25;;;8.26;100.00
62201;BME280;48197;42.732;27.192;2023-04-30T05:01:07;99481.41;;;8.43;100.00
62201;BME280;48197;42.732;27.192;2023-04-30T05:03:34;99487.28;;;8.59;100.00
62201;BME280;48197;42.732;27.192;2023-04-30T05:06:02;99487.94;;;9.06;100.00
62201;BME280;48197;42.732;27.192;2023-04-30T05:08:29;99494.06;;;9.46;100.00
62201;BME280;48197;42.732;27.192;2023-04-30T05:13:58;99490.47;;;10.12;94.29
62201;BME280;48197;42.732;27.192;2023-04-30T05:16:25;99468.50;;;10.47;93.02
62201;BME280;48197;42.732;27.192;2023-04-30T05:18:52;99497.44;;;11.41;87.55
62201;BME280;48197;42.732;27.192;2023-04-30T05:21:19;99493.34;;;12.55;84.21
62201;BME280;48197;42.732;27.192;2023-04-30T05:23:45;99497.72;;;13.56;78.61
62201;BME280;48197;42.732;27.192;2023-04-30T05:26:11;99495.47;;;13.51;75.35
62201;BME280;48197;42.732;27.192;2023-04-30T05:28:38;99498.00;;;13.21;74.60
62201;BME280;48197;42.732;27.192;2023-04-30T05:31:05;99499.59;;;13.02;76.10
62201;BME280;48197;42.732;27.192;2023-04-30T05:33:32;99497.47;;;13.10;76.56
62201;BME280;48197;42.732;27.192;2023-04-30T05:35:59;99499.91;;;13.24;77.58
62201;BME280;48197;42.732;27.192;2023-04-30T05:38:25;99503.84;;;13.07;76.97
62201;BME280;48197;42.732;27.192;2023-04-30T05:40:52;99499.63;;;12.79;81.29
62201;BME280;48197;42.732;27.192;2023-04-30T05:43:19;99499.72;;;12.52;86.08
62201;BME280;48197;42.732;27.192;2023-04-30T05:45:46;99494.69;;;11.07;93.39
62201;BME280;48197;42.732;27.192;2023-04-30T05:48:13;99492.50;;;10.91;96.56
62201;BME280;48197;42.732;27.192;2023-04-30T05:50:39;99500.53;;;11.16;95.91
62201;BME280;48197;42.732;27.192;2023-04-30T05:53:06;99500.91;;;11.45;95.08
62201;BME280;48197;42.732;27.192;2023-04-30T05:55:33;99501.47;;;11.64;91.44
62201;BME280;48197;42.732;27.192;2023-04-30T05:58:00;99509.88;;;11.84;90.10
62201;BME280;48197;42.732;27.192;2023-04-30T06:00:26;99499.31;;;12.06;88.35
62201;BME280;48197;42.732;27.192;2023-04-30T06:02:54;99505.59;;;12.34;86.94
62201;BME280;48197;42.732;27.192;2023-04-30T06:05:20;99509.66;;;12.73;84.79
62201;BME280;48197;42.732;27.192;2023-04-30T06:07:48;99506.22;;;13.48;81.73
62201;BME280;48197;42.732;27.192;2023-04-30T06:10:15;99503.66;;;14.40;76.09
62201;BME280;48197;42.732;27.192;2023-04-30T06:12:42;99509.13;;;15.05;70.14
62201;BME280;48197;42.732;27.192;2023-04-30T06:15:09;99506.69;;;15.62;69.51
62201;BME280;48197;42.732;27.192;2023-04-30T06:17:36;99504.97;;;16.54;63.09
62201;BME280;48197;42.732;27.192;2023-04-30T06:20:03;99503.63;;;17.16;57.98
62201;BME280;48197;42.732;27.192;2023-04-30T06:22:33;99504.41;;;17.17;59.42
62201;BME280;48197;42.732;27.192;2023-04-30T06:25:00;99503.94;;;16.96;59.02
62201;BME280;48197;42.732;27.192;2023-04-30T06:27:27;99511.00;;;16.53;60.27
62201;BME280;48197;42.732;27.192;2023-04-30T06:29:54;99503.28;;;16.57;60.84
62201;BME280;48197;42.732;27.192;2023-04-30T06:32:21;99499.06;;;16.87;59.17
62201;BME280;48197;42.732;27.192;2023-04-30T06:34:48;99494.94;;;17.45;59.04
62201;BME280;48197;42.732;27.192;2023-04-30T06:37:14;99502.72;;;17.41;58.29
62201;BME280;48197;42.732;27.192;2023-04-30T06:39:41;99498.59;;;17.55;56.92
62201;BME280;48197;42.732;27.192;2023-04-30T06:42:08;99493.69;;;17.68;57.04
62201;BME280;48197;42.732;27.192;2023-04-30T06:44:35;99498.06;;;17.47;56.91
62201;BME280;48197;42.732;27.192;2023-04-30T06:47:01;99500.75;;;17.07;58.12
62201;BME280;48197;42.732;27.192;2023-04-30T06:49:28;99499.63;;;16.47;60.46
62201;BME280;48197;42.732;27.192;2023-04-30T06:51:54;99498.44;;;16.23;61.54
62201;BME280;48197;42.732;27.192;2023-04-30T06:54:23;99495.91;;;16.03;61.42
62201;BME280;48197;42.732;27.192;2023-04-30T06:56:52;99487.34;;;15.84;61.54
62201;BME280;48197;42.732;27.192;2023-04-30T06:59:19;99493.91;;;16.03;63.34
62201;BME280;48197;42.732;27.192;2023-04-30T07:01:44;99487.25;;;16.48;62.55
62201;BME280;48197;42.732;27.192;2023-04-30T07:04:14;99487.91;;;16.74;61.28
62201;BME280;48197;42.732;27.192;2023-04-30T07:06:41;99498.34;;;16.96;60.70
62201;BME280;48197;42.732;27.192;2023-04-30T07:09:07;99496.28;;;17.31;62.16
62201;BME280;48197;42.732;27.192;2023-04-30T07:11:34;99497.22;;;18.50;58.31
62201;BME280;48197;42.732;27.192;2023-04-30T07:14:01;99487.38;;;19.47;56.88
62201;BME280;48197;42.732;27.192;2023-04-30T07:16:28;99490.38;;;19.86;55.82
62201;BME280;48197;42.732;27.192;2023-04-30T07:18:55;99493.47;;;20.69;51.83
62201;BME280;48197;42.732;27.192;2023-04-30T07:21:22;99484.56;;;21.25;49.56
62201;BME280;48197;42.732;27.192;2023-04-30T07:23:50;99488.44;;;21.27;47.70
62201;BME280;48197;42.732;27.192;2023-04-30T07:26:17;99486.16;;;21.91;49.97
62201;BME280;48197;42.732;27.192;2023-04-30T07:28:46;99486.69;;;22.86;42.70
62201;BME280;48197;42.732;27.192;2023-04-30T07:31:14;99493.34;;;23.35;39.59
62201;BME280;48197;42.732;27.192;2023-04-30T07:33:40;99494.25;;;23.47;39.51
62201;BME280;48197;42.732;27.192;2023-04-30T07:36:07;99491.88;;;22.93;37.25
62201;BME280;48197;42.732;27.192;2023-04-30T07:38:34;99488.47;;;22.63;37.66
62201;BME280;48197;42.732;27.192;2023-04-30T07:41:01;99494.47;;;23.17;37.91
62201;BME280;48197;42.732;27.192;2023-04-30T07:43:28;99496.09;;;23.56;37.11
62201;BME280;48197;42.732;27.192;2023-04-30T07:45:54;99499.34;;;23.75;36.00
62201;BME280;48197;42.732;27.192;2023-04-30T07:48:21;99490.28;;;23.97;35.45
62201;BME280;48197;42.732;27.192;2023-04-30T07:50:48;99481.66;;;24.12;34.82
62201;BME280;48197;42.732;27.192;2023-04-30T07:53:14;99487.06;;;23.78;35.85
62201;BME280;48197;42.732;27.192;2023-04-30T07:55:41;99485.13;;;24.38;36.28
62201;BME280;48197;42.732;27.192;2023-04-30T07:58:07;99479.72;;;23.92;34.58
62201;BME280;48197;42.732;27.192;2023-04-30T08:00:34;99471.13;;;23.17;35.89
62201;BME280;48197;42.732;27.192;2023-04-30T08:03:01;99477.88;;;23.83;34.74
62201;BME280;48197;42.732;27.192;2023-04-30T08:05:27;99471.44;;;24.25;34.25
62201;BME280;48197;42.732;27.192;2023-04-30T08:07:53;99468.44;;;24.40;34.75
62201;BME280;48197;42.732;27.192;2023-04-30T08:10:20;99469.69;;;24.88;33.65
62201;BME280;48197;42.732;27.192;2023-04-30T08:12:47;99461.81;;;25.54;33.06
62201;BME280;48197;42.732;27.192;2023-04-30T08:15:15;99464.38;;;25.69;32.79
62201;BME280;48197;42.732;27.192;2023-04-30T08:17:42;99464.06;;;25.05;31.33
62201;BME280;48197;42.732;27.192;2023-04-30T08:20:08;99452.00;;;25.16;30.34
62201;BME280;48197;42.732;27.192;2023-04-30T08:22:35;99452.78;;;25.39;30.77
62201;BME280;48197;42.732;27.192;2023-04-30T08:25:02;99456.38;;;25.84;30.07
62201;BME280;48197;42.732;27.192;2023-04-30T08:27:29;99448.88;;;26.15;29.69
62201;BME280;48197;42.732;27.192;2023-04-30T08:29:57;99455.38;;;25.82;28.79
62201;BME280;48197;42.732;27.192;2023-04-30T08:32:23;99449.69;;;25.82;30.13
62201;BME280;48197;42.732;27.192;2023-04-30T08:34:51;99451.53;;;25.45;30.40
62201;BME280;48197;42.732;27.192;2023-04-30T08:37:17;99453.25;;;25.09;32.61
62201;BME280;48197;42.732;27.192;2023-04-30T08:39:44;99446.38;;;25.38;31.82
62201;BME280;48197;42.732;27.192;2023-04-30T08:42:11;99449.38;;;26.19;29.53
62201;BME280;48197;42.732;27.192;2023-04-30T08:44:40;99450.31;;;26.44;29.90
62201;BME280;48197;42.732;27.192;2023-04-30T08:47:09;99441.69;;;26.03;29.77
62201;BME280;48197;42.732;27.192;2023-04-30T08:49:38;99434.78;;;25.93;30.31
62201;BME280;48197;42.732;27.192;2023-04-30T08:52:05;99453.22;;;26.27;30.41
62201;BME280;48197;42.732;27.192;2023-04-30T08:54:33;99449.44;;;25.74;30.12
62201;BME280;48197;42.732;27.192;2023-04-30T08:57:01;99436.03;;;25.86;30.41
62201;BME280;48197;42.732;27.192;2023-04-30T08:59:27;99438.38;;;25.93;30.78
62201;BME280;48197;42.732;27.192;2023-04-30T09:01:55;99434.25;;;25.77;30.63
62201;BME280;48197;42.732;27.192;2023-04-30T09:04:22;99441.75;;;25.69;31.45
62201;BME280;48197;42.732;27.192;2023-04-30T09:06:51;99433.00;;;25.50;29.46
62201;BME280;48197;42.732;27.192;2023-04-30T09:09:18;99429.66;;;25.52;30.40
62201;BME280;48197;42.732;27.192;2023-04-30T09:11:44;99435.84;;;25.44;30.28
62201;BME280;48197;42.732;27.192;2023-04-30T09:14:11;99427.63;;;25.35;31.11
62201;BME280;48197;42.732;27.192;2023-04-30T09:16:45;99427.25;;;24.77;31.51
62201;BME280;48197;42.732;27.192;2023-04-30T09:19:26;99419.53;;;23.69;32.60
62201;BME280;48197;42.732;27.192;2023-04-30T09:21:53;99424.50;;;23.16;33.93
62201;BME280;48197;42.732;27.192;2023-04-30T09:24:20;99429.59;;;22.45;35.24
62201;BME280;48197;42.732;27.192;2023-04-30T09:26:47;99431.28;;;21.45;37.12
62201;BME280;48197;42.732;27.192;2023-04-30T09:29:14;99427.84;;;21.71;37.54
62201;BME280;48197;42.732;27.192;2023-04-30T09:31:44;99421.19;;;22.24;36.20
62201;BME280;48197;42.732;27.192;2023-04-30T09:34:12;99424.44;;;22.63;35.62
62201;BME280;48197;42.732;27.192;2023-04-30T09:36:54;99412.66;;;23.12;35.98
62201;BME280;48197;42.732;27.192;2023-04-30T10:10:28;99415.88;;;22.11;30.14
62201;BME280;48197;42.732;27.192;2023-04-30T10:12:59;99413.41;;;21.33;31.22
62201;BME280;48197;42.732;27.192;2023-04-30T10:15:33;99408.09;;;21.50;31.89
62201;BME280;48197;42.732;27.192;2023-04-30T10:18:03;99409.31;;;22.20;31.85
62201;BME280;48197;42.732;27.192;2023-04-30T10:20:30;99408.53;;;21.99;31.11
62201;BME280;48197;42.732;27.192;2023-04-30T10:22:59;99403.22;;;22.42;32.39
62201;BME280;48197;42.732;27.192;2023-04-30T10:25:26;99400.59;;;22.85;32.45
62201;BME280;48197;42.732;27.192;2023-04-30T10:27:56;99400.34;;;23.09;32.32
62201;BME280;48197;42.732;27.192;2023-04-30T10:30:22;99408.00;;;22.82;30.80
62201;BME280;48197;42.732;27.192;2023-04-30T10:38:23;99394.25;;;23.16;31.41
62201;BME280;48197;42.732;27.192;2023-04-30T10:40:54;99397.22;;;22.14;31.59
62201;BME280;48197;42.732;27.192;2023-04-30T10:43:22;99390.94;;;21.84;31.81
62201;BME280;48197;42.732;27.192;2023-04-30T10:45:48;99400.19;;;22.05;31.58
62201;BME280;48197;42.732;27.192;2023-04-30T10:48:15;99386.81;;;22.20;32.24
62201;BME280;48197;42.732;27.192;2023-04-30T10:50:51;99392.75;;;21.66;31.84
62201;BME280;48197;42.732;27.192;2023-04-30T10:53:19;99397.38;;;21.19;32.75
62201;BME280;48197;42.732;27.192;2023-04-30T10:55:51;99388.13;;;20.89;33.77
62201;BME280;48197;42.732;27.192;2023-04-30T10:58:25;99398.44;;;20.92;33.61
62201;BME280;48197;42.732;27.192;2023-04-30T11:01:01;99388.91;;;21.49;33.32
62201;BME280;48197;42.732;27.192;2023-04-30T11:03:28;99390.34;;;22.35;33.25
62201;BME280;48197;42.732;27.192;2023-04-30T11:05:55;99389.88;;;22.63;34.43
62201;BME280;48197;42.732;27.192;2023-04-30T11:11:01;99390.06;;;22.80;35.25
62201;BME280;48197;42.732;27.192;2023-04-30T11:13:27;99384.97;;;23.10;34.50
62201;BME280;48197;42.732;27.192;2023-04-30T11:15:54;99386.06;;;23.50;34.55
62201;BME280;48197;42.732;27.192;2023-04-30T11:18:27;99384.28;;;23.53;34.06
62201;BME280;48197;42.732;27.192;2023-04-30T11:20:55;99379.19;;;23.57;34.30
62201;BME280;48197;42.732;27.192;2023-04-30T11:23:22;99380.22;;;23.59;34.48
62201;BME280;48197;42.732;27.192;2023-04-30T11:25:52;99381.06;;;23.71;34.49
62201;BME280;48197;42.732;27.192;2023-04-30T11:28:25;99378.22;;;23.28;34.41
62201;BME280;48197;42.732;27.192;2023-04-30T11:30:52;99386.00;;;23.13;34.85
62201;BME280;48197;42.732;27.192;2023-04-30T11:33:20;99377.34;;;23.16;35.16
62201;BME280;48197;42.732;27.192;2023-04-30T11:35:47;99371.22;;;23.18;35.52
62201;BME280;48197;42.732;27.192;2023-04-30T11:38:24;99371.38;;;23.40;35.99
62201;BME280;48197;42.732;27.192;2023-04-30T11:40:52;99370.47;;;23.23;35.01
62201;BME280;48197;42.732;27.192;2023-04-30T11:43:28;99369.88;;;23.82;34.82
62201;BME280;48197;42.732;27.192;2023-04-30T11:46:14;99367.38;;;24.73;33.81
62201;BME280;48197;42.732;27.192;2023-04-30T11:48:43;99365.81;;;24.66;33.44
62201;BME280;48197;42.732;27.192;2023-04-30T11:51:16;99362.25;;;24.82;33.03
62201;BME280;48197;42.732;27.192;2023-04-30T11:53:45;99349.63;;;24.55;33.24
62201;BME280;48197;42.732;27.192;2023-04-30T11:56:13;99356.44;;;24.20;33.69
62201;BME280;48197;42.732;27.192;2023-04-30T11:58:39;99359.38;;;23.89;34.36
62201;BME280;48197;42.732;27.192;2023-04-30T12:01:06;99350.06;;;23.77;34.79
62201;BME280;48197;42.732;27.192;2023-04-30T12:03:41;99355.34;;;23.20;35.43
62201;BME280;48197;42.732;27.192;2023-04-30T12:06:09;99368.94;;;22.70;36.17
62201;BME280;48197;42.732;27.192;2023-04-30T12:08:35;99359.16;;;22.18;36.24
62201;BME280;48197;42.732;27.192;2023-04-30T12:11:03;99361.41;;;21.23;38.81
62201;BME280;48197;42.732;27.192;2023-04-30T12:13:33;99366.91;;;20.58;39.81
62201;BME280;48197;42.732;27.192;2023-04-30T12:15:59;99366.59;;;20.56;39.17
62201;BME280;48197;42.732;27.192;2023-04-30T12:18:26;99362.50;;;20.81;39.09
62201;BME280;48197;42.732;27.192;2023-04-30T12:20:53;99354.53;;;20.94;39.26
62201;BME280;48197;42.732;27.192;2023-04-30T12:23:19;99363.94;;;21.06;38.84
62201;BME280;48197;42.732;27.192;2023-04-30T12:25:46;99363.44;;;20.63;39.81
62201;BME280;48197;42.732;27.192;2023-04-30T12:28:12;99366.41;;;19.39;43.19
62201;BME280;48197;42.732;27.192;2023-04-30T12:30:40;99359.22;;;19.05;44.76
62201;BME280;48197;42.732;27.192;2023-04-30T12:33:08;99359.91;;;19.33;45.52
62201;BME280;48197;42.732;27.192;2023-04-30T12:35:35;99358.84;;;20.36;43.28
62201;BME280;48197;42.732;27.192;2023-04-30T12:38:03;99346.28;;;22.84;39.16
62201;BME280;48197;42.732;27.192;2023-04-30T12:40:30;99343.16;;;23.78;36.90
62201;BME280;48197;42.732;27.192;2023-04-30T12:43:04;99341.97;;;23.53;35.63
62201;BME280;48197;42.732;27.192;2023-04-30T12:45:47;99342.00;;;23.21;35.77
62201;BME280;48197;42.732;27.192;2023-04-30T12:48:16;99349.13;;;22.58;36.03
62201;BME280;48197;42.732;27.192;2023-04-30T12:50:57;99338.06;;;22.29;36.70
62201;BME280;48197;42.732;27.192;2023-04-30T12:53:25;99338.13;;;21.93;37.33
62201;BME280;48197;42.732;27.192;2023-04-30T12:58:37;99334.53;;;21.37;37.57
62201;BME280;48197;42.732;27.192;2023-04-30T13:01:09;99340.91;;;21.52;37.42
62201;BME280;48197;42.732;27.192;2023-04-30T13:03:36;99338.59;;;21.71;37.73
62201;BME280;48197;42.732;27.192;2023-04-30T13:06:03;99336.34;;;21.55;38.34
62201;BME280;48197;42.732;27.192;2023-04-30T13:08:32;99334.56;;;21.22;39.12
62201;BME280;48197;42.732;27.192;2023-04-30T13:10:59;99331.94;;;21.04;39.73
62201;BME280;48197;42.732;27.192;2023-04-30T13:13:26;99335.28;;;21.02;39.57
62201;BME280;48197;42.732;27.192;2023-04-30T13:15:53;99335.06;;;21.06;39.57
62201;BME280;48197;42.732;27.192;2023-04-30T13:18:20;99331.97;;;20.89;39.42
62201;BME280;48197;42.732;27.192;2023-04-30T13:20:47;99332.19;;;20.70;40.00
62201;BME280;48197;42.732;27.192;2023-04-30T13:23:14;99332.31;;;20.52;39.93
62201;BME280;48197;42.732;27.192;2023-04-30T13:25:41;99336.97;;;20.40;40.21
62201;BME280;48197;42.732;27.192;2023-04-30T13:28:08;99335.13;;;20.52;40.54
62201;BME280;48197;42.732;27.192;2023-04-30T13:30:35;99343.47;;;20.61;39.78
62201;BME280;48197;42.732;27.192;2023-04-30T13:33:01;99341.25;;;20.80;39.78
62201;BME280;48197;42.732;27.192;2023-04-30T13:35:28;99344.50;;;21.38;38.46
62201;BME280;48197;42.732;27.192;2023-04-30T13:37:57;99335.22;;;21.47;38.04
62201;BME280;48197;42.732;27.192;2023-04-30T13:40:25;99337.84;;;21.20;38.53
62201;BME280;48197;42.732;27.192;2023-04-30T13:42:51;99344.94;;;21.01;38.98
62201;BME280;48197;42.732;27.192;2023-04-30T13:45:18;99342.81;;;20.66;38.55
62201;BME280;48197;42.732;27.192;2023-04-30T13:47:44;99340.81;;;20.28;38.11
62201;BME280;48197;42.732;27.192;2023-04-30T13:50:11;99352.38;;;20.06;39.16